sensor_id;sensor_type;location;lat;lon;timestamp;pressure;altitude;pressure_sealevel;temperature;humidity
85524;BME280;75932;48.616;9.270;2024-02-28T00:02:06;98362.94;;;6.53;79.87
85524;BME280;75932;48.616;9.270;2024-02-28T00:04:31;98361.97;;;6.49;79.31
85524;BME280;75932;48.616;9.270;2024-02-28T00:06:56;98371.22;;;6.53;79.53
85524;BME280;75932;48.616;9.270;2024-02-28T00:09:24;98369.13;;;6.50;79.58
85524;BME280;75932;48.616;9.270;2024-02-28T00:11:49;98368.31;;;6.50;79.62
85524;BME280;75932;48.616;9.270;2024-02-28T00:14:15;98364.94;;;6.44;80.55
85524;BME280;75932;48.616;9.270;2024-02-28T00:16:44;98373.22;;;6.44;80.65
85524;BME280;75932;48.616;9.270;2024-02-28T00:19:10;98368.16;;;6.46;80.00
85524;BME280;75932;48.616;9.270;2024-02-28T00:21:39;98362.53;;;6.43;80.51
85524;BME280;75932;48.616;9.270;2024-02-28T00:24:05;98375.00;;;6.49;80.24
85524;BME280;75932;48.616;9.270;2024-02-28T00:26:31;98374.16;;;6.48;79.46
85524;BME280;75932;48.616;9.270;2024-02-28T00:28:56;98373.69;;;6.46;80.08
85524;BME280;75932;48.616;9.270;2024-02-28T00:31:22;98370.34;;;6.41;80.35
85524;BME280;75932;48.616;9.270;2024-02-28T00:33:47;98374.72;;;6.42;80.98
85524;BME280;75932;48.616;9.270;2024-02-28T00:36:13;98382.53;;;6.40;80.94
85524;BME280;75932;48.616;9.270;2024-02-28T00:38:38;98384.16;;;6.41;80.68
85524;BME280;75932;48.616;9.270;2024-02-28T00:41:04;98373.56;;;6.43;79.89
85524;BME280;75932;48.616;9.270;2024-02-28T00:43:29;98366.16;;;6.34;80.04
85524;BME280;75932;48.616;9.270;2024-02-28T00:45:54;98322.25;;;6.12;79.48
85524;BME280;75932;48.616;9.270;2024-02-28T00:48:21;98362.72;;;6.38;79.47
85524;BME280;75932;48.616;9.270;2024-02-28T00:50:47;98376.06;;;6.36;80.35
85524;BME280;75932;48.616;9.270;2024-02-28T00:53:12;98354.38;;;6.25;79.67
85524;BME280;75932;48.616;9.270;2024-02-28T00:55:37;98372.16;;;6.37;80.06
85524;BME280;75932;48.616;9.270;2024-02-28T00:58:03;98374.91;;;6.37;79.63
85524;BME280;75932;48.616;9.270;2024-02-28T01:00:28;98380.78;;;6.35;79.52
85524;BME280;75932;48.616;9.270;2024-02-28T01:02:53;98370.75;;;6.30;80.19
85524;BME280;75932;48.616;9.270;2024-02-28T01:05:18;98376.75;;;6.32;78.96
85524;BME280;75932;48.616;9.270;2024-02-28T01:07:44;98378.56;;;6.28;78.85
85524;BME280;75932;48.616;9.270;2024-02-28T01:10:09;98378.81;;;6.36;78.81
85524;BME280;75932;48.616;9.270;2024-02-28T01:12:37;98381.25;;;6.37;78.83
85524;BME280;75932;48.616;9.270;2024-02-28T01:15:03;98383.88;;;6.33;79.80
85524;BME280;75932;48.616;9.270;2024-02-28T01:17:28;98375.66;;;6.25;79.83
85524;BME280;75932;48.616;9.270;2024-02-28T01:19:54;98387.06;;;6.23;80.41
85524;BME280;75932;48.616;9.270;2024-02-28T01:22:19;98379.88;;;6.22;80.79
85524;BME280;75932;48.616;9.270;2024-02-28T01:24:44;98391.94;;;6.18;81.02
85524;BME280;75932;48.616;9.270;2024-02-28T01:27:10;98380.91;;;6.18;81.55
85524;BME280;75932;48.616;9.270;2024-02-28T01:29:35;98382.38;;;6.15;81.50
85524;BME280;75932;48.616;9.270;2024-02-28T01:32:00;98380.75;;;6.14;81.70
85524;BME280;75932;48.616;9.270;2024-02-28T01:34:26;98385.00;;;6.11;81.80
85524;BME280;75932;48.616;9.270;2024-02-28T01:36:51;98382.72;;;6.13;81.06
85524;BME280;75932;48.616;9.270;2024-02-28T01:39:17;98382.72;;;6.13;81.02
85524;BME280;75932;48.616;9.270;2024-02-28T01:41:51;98388.38;;;6.17;81.11
85524;BME280;75932;48.616;9.270;2024-02-28T01:44:16;98391.16;;;6.17;80.96
85524;BME280;75932;48.616;9.270;2024-02-28T01:46:41;98402.53;;;6.16;80.94
85524;BME280;75932;48.616;9.270;2024-02-28T01:49:06;98394.56;;;6.14;81.06
85524;BME280;75932;48.616;9.270;2024-02-28T01:51:32;98399.44;;;6.17;80.49
85524;BME280;75932;48.616;9.270;2024-02-28T01:53:57;98395.34;;;6.23;80.43
85524;BME280;75932;48.616;9.270;2024-02-28T01:56:24;98395.66;;;6.22;80.64
85524;BME280;75932;48.616;9.270;2024-02-28T01:58:50;98358.94;;;5.91;80.40
85524;BME280;75932;48.616;9.270;2024-02-28T02:01:17;98410.59;;;6.21;80.13
85524;BME280;75932;48.616;9.270;2024-02-28T02:03:43;98410.75;;;6.24;80.31
85524;BME280;75932;48.616;9.270;2024-02-28T02:06:08;98363.97;;;5.98;80.70
85524;BME280;75932;48.616;9.270;2024-02-28T02:08:34;98404.91;;;6.26;80.36
85524;BME280;75932;48.616;9.270;2024-02-28T02:10:59;98416.44;;;6.28;80.45
85524;BME280;75932;48.616;9.270;2024-02-28T02:13:25;98411.22;;;6.26;81.06
85524;BME280;75932;48.616;9.270;2024-02-28T02:15:50;98417.72;;;6.30;80.99
85524;BME280;75932;48.616;9.270;2024-02-28T02:18:15;98409.16;;;6.23;80.23
85524;BME280;75932;48.616;9.270;2024-02-28T02:20:43;98423.25;;;6.30;81.44
85524;BME280;75932;48.616;9.270;2024-02-28T02:23:12;98430.84;;;6.33;80.73
85524;BME280;75932;48.616;9.270;2024-02-28T02:25:48;98432.97;;;6.37;80.45
85524;BME280;75932;48.616;9.270;2024-02-28T02:28:14;98440.44;;;6.36;80.44
85524;BME280;75932;48.616;9.270;2024-02-28T02:30:40;98442.84;;;6.38;80.89
85524;BME280;75932;48.616;9.270;2024-02-28T02:33:07;98441.72;;;6.39;80.42
85524;BME280;75932;48.616;9.270;2024-02-28T02:35:33;98451.97;;;6.38;80.50
85524;BME280;75932;48.616;9.270;2024-02-28T02:37:59;98457.28;;;6.43;81.06
85524;BME280;75932;48.616;9.270;2024-02-28T02:40:24;98450.16;;;6.42;80.18
85524;BME280;75932;48.616;9.270;2024-02-28T02:42:49;98450.59;;;6.44;80.42
85524;BME280;75932;48.616;9.270;2024-02-28T02:45:16;98448.38;;;6.38;81.16
85524;BME280;75932;48.616;9.270;2024-02-28T02:47:41;98455.06;;;6.37;80.71
85524;BME280;75932;48.616;9.270;2024-02-28T02:50:09;98427.66;;;6.23;80.93
85524;BME280;75932;48.616;9.270;2024-02-28T02:52:34;98454.91;;;6.33;81.67
85524;BME280;75932;48.616;9.270;2024-02-28T02:54:59;98457.69;;;6.33;81.29
85524;BME280;75932;48.616;9.270;2024-02-28T02:57:24;98475.41;;;6.32;80.82
85524;BME280;75932;48.616;9.270;2024-02-28T02:59:50;98459.63;;;6.32;81.71
85524;BME280;75932;48.616;9.270;2024-02-28T03:02:15;98468.25;;;6.31;81.56
85524;BME280;75932;48.616;9.270;2024-02-28T03:04:40;98464.69;;;6.30;81.75
85524;BME280;75932;48.616;9.270;2024-02-28T03:07:05;98476.53;;;6.31;81.37
85524;BME280;75932;48.616;9.270;2024-02-28T03:09:31;98472.97;;;6.30;81.59
85524;BME280;75932;48.616;9.270;2024-02-28T03:11:58;98483.22;;;6.30;82.09
85524;BME280;75932;48.616;9.270;2024-02-28T03:14:23;98485.63;;;6.31;82.54
85524;BME280;75932;48.616;9.270;2024-02-28T03:16:50;98492.31;;;6.30;82.44
85524;BME280;75932;48.616;9.270;2024-02-28T03:19:16;98498.16;;;6.29;82.79
85524;BME280;75932;48.616;9.270;2024-02-28T03:21:41;98482.91;;;6.23;82.22
85524;BME280;75932;48.616;9.270;2024-02-28T03:24:06;98462.34;;;6.11;82.56
85524;BME280;75932;48.616;9.270;2024-02-28T03:26:32;98509.69;;;6.31;82.07
85524;BME280;75932;48.616;9.270;2024-02-28T03:28:58;98514.44;;;6.30;82.49
85524;BME280;75932;48.616;9.270;2024-02-28T03:31:23;98513.28;;;6.31;82.53
85524;BME280;75932;48.616;9.270;2024-02-28T03:33:48;98519.63;;;6.32;82.12
85524;BME280;75932;48.616;9.270;2024-02-28T03:36:14;98518.66;;;6.28;82.46
85524;BME280;75932;48.616;9.270;2024-02-28T03:38:39;98522.41;;;6.32;82.59
85524;BME280;75932;48.616;9.270;2024-02-28T03:41:05;98527.91;;;6.32;83.11
85524;BME280;75932;48.616;9.270;2024-02-28T03:43:30;98532.63;;;6.31;81.90
85524;BME280;75932;48.616;9.270;2024-02-28T03:45:56;98531.34;;;6.29;81.47
85524;BME280;75932;48.616;9.270;2024-02-28T03:48:21;98530.53;;;6.28;81.23
85524;BME280;75932;48.616;9.270;2024-02-28T03:50:46;98532.81;;;6.26;82.16
85524;BME280;75932;48.616;9.270;2024-02-28T03:53:12;98530.84;;;6.27;80.18
85524;BME280;75932;48.616;9.270;2024-02-28T03:55:37;98525.69;;;6.25;80.88
85524;BME280;75932;48.616;9.270;2024-02-28T03:58:03;98515.59;;;6.21;80.38
85524;BME280;75932;48.616;9.270;2024-02-28T04:00:28;98518.50;;;6.24;80.64
85524;BME280;75932;48.616;9.270;2024-02-28T04:02:53;98524.25;;;6.19;80.39
85524;BME280;75932;48.616;9.270;2024-02-28T04:05:19;98521.97;;;6.21;79.85
85524;BME280;75932;48.616;9.270;2024-02-28T04:07:44;98523.56;;;6.22;80.47
85524;BME280;75932;48.616;9.270;2024-02-28T04:10:09;98519.50;;;6.20;79.78
85524;BME280;75932;48.616;9.270;2024-02-28T04:12:36;98519.19;;;6.21;80.29
85524;BME280;75932;48.616;9.270;2024-02-28T04:15:01;98516.28;;;6.18;80.18
85524;BME280;75932;48.616;9.270;2024-02-28T04:17:27;98520.66;;;6.19;80.34
85524;BME280;75932;48.616;9.270;2024-02-28T04:19:52;98508.66;;;6.15;79.21
85524;BME280;75932;48.616;9.270;2024-02-28T04:22:18;98522.59;;;6.18;79.45
85524;BME280;75932;48.616;9.270;2024-02-28T04:24:43;98524.09;;;6.16;80.74
85524;BME280;75932;48.616;9.270;2024-02-28T04:27:08;98524.88;;;6.16;79.51
85524;BME280;75932;48.616;9.270;2024-02-28T04:29:36;98525.41;;;6.09;79.62
85524;BME280;75932;48.616;9.270;2024-02-28T04:32:02;98529.81;;;6.10;79.70
85524;BME280;75932;48.616;9.270;2024-02-28T04:34:27;98536.44;;;6.09;79.10
85524;BME280;75932;48.616;9.270;2024-02-28T04:36:52;98537.25;;;6.10;80.38
85524;BME280;75932;48.616;9.270;2024-02-28T04:39:17;98535.31;;;6.10;79.94
85524;BME280;75932;48.616;9.270;2024-02-28T04:41:43;98546.03;;;6.12;79.99
85524;BME280;75932;48.616;9.270;2024-02-28T04:44:08;98549.47;;;6.09;79.06
85524;BME280;75932;48.616;9.270;2024-02-28T04:46:34;98544.59;;;6.06;79.70
85524;BME280;75932;48.616;9.270;2024-02-28T04:48:59;98559.34;;;6.10;79.58
85524;BME280;75932;48.616;9.270;2024-02-28T04:51:25;98548.19;;;6.06;79.51
85524;BME280;75932;48.616;9.270;2024-02-28T04:53:50;98562.31;;;6.05;79.61
85524;BME280;75932;48.616;9.270;2024-02-28T04:56:15;98556.31;;;6.03;79.60
85524;BME280;75932;48.616;9.270;2024-02-28T04:58:41;98562.81;;;5.98;79.77
85524;BME280;75932;48.616;9.270;2024-02-28T05:01:06;98569.78;;;6.04;80.36
85524;BME280;75932;48.616;9.270;2024-02-28T05:03:31;98571.28;;;6.02;79.59
85524;BME280;75932;48.616;9.270;2024-02-28T05:05:56;98575.63;;;6.03;80.48
85524;BME280;75932;48.616;9.270;2024-02-28T05:08:22;98576.78;;;6.02;80.82
85524;BME280;75932;48.616;9.270;2024-02-28T05:10:49;98584.91;;;5.98;80.53
85524;BME280;75932;48.616;9.270;2024-02-28T05:13:15;98571.09;;;5.98;81.65
85524;BME280;75932;48.616;9.270;2024-02-28T05:15:40;98571.44;;;5.97;80.68
85524;BME280;75932;48.616;9.270;2024-02-28T05:18:06;98586.69;;;5.94;80.90
85524;BME280;75932;48.616;9.270;2024-02-28T05:20:31;98594.16;;;5.93;81.84
85524;BME280;75932;48.616;9.270;2024-02-28T05:22:56;98581.16;;;5.94;81.36
85524;BME280;75932;48.616;9.270;2024-02-28T05:25:22;98590.56;;;5.93;81.36
85524;BME280;75932;48.616;9.270;2024-02-28T05:27:47;98587.31;;;5.91;81.69
85524;BME280;75932;48.616;9.270;2024-02-28T05:30:16;98576.66;;;5.81;81.63
85524;BME280;75932;48.616;9.270;2024-02-28T05:32:41;98595.16;;;5.89;81.49
85524;BME280;75932;48.616;9.270;2024-02-28T05:35:06;98587.34;;;5.82;81.39
85524;BME280;75932;48.616;9.270;2024-02-28T05:37:32;98579.38;;;5.89;81.45
85524;BME280;75932;48.616;9.270;2024-02-28T05:39:58;98598.00;;;6.19;79.89
85524;BME280;75932;48.616;9.270;2024-02-28T05:42:23;98590.72;;;6.14;79.68
85524;BME280;75932;48.616;9.270;2024-02-28T05:44:49;98604.53;;;6.05;79.89
85524;BME280;75932;48.616;9.270;2024-02-28T05:47:15;98600.50;;;6.03;80.10
85524;BME280;75932;48.616;9.270;2024-02-28T05:49:40;98607.50;;;6.00;80.55
85524;BME280;75932;48.616;9.270;2024-02-28T05:52:05;98626.16;;;6.03;80.16
85524;BME280;75932;48.616;9.270;2024-02-28T05:54:31;98630.06;;;6.02;80.04
85524;BME280;75932;48.616;9.270;2024-02-28T05:56:56;98630.38;;;6.09;80.17
85524;BME280;75932;48.616;9.270;2024-02-28T05:59:22;98628.41;;;6.19;79.93
85524;BME280;75932;48.616;9.270;2024-02-28T06:01:47;98627.56;;;6.27;80.73
85524;BME280;75932;48.616;9.270;2024-02-28T06:04:12;98634.34;;;6.47;79.63
85524;BME280;75932;48.616;9.270;2024-02-28T06:06:38;98629.97;;;6.37;79.17
85524;BME280;75932;48.616;9.270;2024-02-28T06:09:06;98638.88;;;6.51;79.94
85524;BME280;75932;48.616;9.270;2024-02-28T06:11:32;98631.44;;;6.34;77.69
85524;BME280;75932;48.616;9.270;2024-02-28T06:13:58;98634.38;;;6.38;78.00
85524;BME280;75932;48.616;9.270;2024-02-28T06:16:24;98633.44;;;6.25;78.34
85524;BME280;75932;48.616;9.270;2024-02-28T06:18:49;98592.84;;;5.91;78.38
85524;BME280;75932;48.616;9.270;2024-02-28T06:21:15;98648.41;;;6.16;79.43
85524;BME280;75932;48.616;9.270;2024-02-28T06:23:42;98652.31;;;6.06;79.45
85524;BME280;75932;48.616;9.270;2024-02-28T06:26:08;98635.75;;;5.88;80.11
85524;BME280;75932;48.616;9.270;2024-02-28T06:28:40;98663.38;;;5.97;79.84
85524;BME280;75932;48.616;9.270;2024-02-28T06:31:12;98666.59;;;5.90;79.76
85524;BME280;75932;48.616;9.270;2024-02-28T06:33:37;98666.78;;;5.85;80.12
85524;BME280;75932;48.616;9.270;2024-02-28T06:36:03;98674.09;;;5.81;80.64
85524;BME280;75932;48.616;9.270;2024-02-28T06:38:28;98669.19;;;5.78;80.85
85524;BME280;75932;48.616;9.270;2024-02-28T06:40:53;98677.34;;;5.83;81.20
85524;BME280;75932;48.616;9.270;2024-02-28T06:43:19;98682.84;;;5.83;80.67
85524;BME280;75932;48.616;9.270;2024-02-28T06:45:44;98686.25;;;5.80;80.70
85524;BME280;75932;48.616;9.270;2024-02-28T06:48:09;98696.19;;;5.81;80.98
85524;BME280;75932;48.616;9.270;2024-02-28T06:50:35;98701.03;;;5.76;81.03
85524;BME280;75932;48.616;9.270;2024-02-28T06:53:00;98709.31;;;5.76;81.31
85524;BME280;75932;48.616;9.270;2024-02-28T06:55:25;98710.63;;;5.78;81.45
85524;BME280;75932;48.616;9.270;2024-02-28T06:57:50;98716.97;;;5.79;81.34
85524;BME280;75932;48.616;9.270;2024-02-28T07:00:16;98706.41;;;5.81;81.33
85524;BME280;75932;48.616;9.270;2024-02-28T07:02:45;98717.94;;;5.83;81.18
85524;BME280;75932;48.616;9.270;2024-02-28T07:05:13;98717.47;;;5.81;80.89
85524;BME280;75932;48.616;9.270;2024-02-28T07:07:41;98720.72;;;5.83;81.41
85524;BME280;75932;48.616;9.270;2024-02-28T07:10:06;98720.38;;;5.84;80.39
85524;BME280;75932;48.616;9.270;2024-02-28T07:12:32;98707.41;;;5.76;80.44
85524;BME280;75932;48.616;9.270;2024-02-28T07:14:57;98728.81;;;5.88;80.78
85524;BME280;75932;48.616;9.270;2024-02-28T07:17:22;98727.69;;;5.89;80.28
85524;BME280;75932;48.616;9.270;2024-02-28T07:19:48;98726.22;;;5.91;80.94
85524;BME280;75932;48.616;9.270;2024-02-28T07:22:13;98716.97;;;5.87;81.06
85524;BME280;75932;48.616;9.270;2024-02-28T07:24:39;98730.00;;;5.96;80.70
85524;BME280;75932;48.616;9.270;2024-02-28T07:27:04;98713.06;;;5.80;80.02
85524;BME280;75932;48.616;9.270;2024-02-28T07:29:29;98728.34;;;6.03;80.14
85524;BME280;75932;48.616;9.270;2024-02-28T07:31:55;98723.97;;;6.11;80.38
85524;BME280;75932;48.616;9.270;2024-02-28T07:34:20;98730.63;;;6.10;80.09
85524;BME280;75932;48.616;9.270;2024-02-28T07:36:45;98742.50;;;6.10;79.45
85524;BME280;75932;48.616;9.270;2024-02-28T07:39:10;98741.38;;;6.11;79.35
85524;BME280;75932;48.616;9.270;2024-02-28T07:41:41;98732.44;;;6.15;79.61
85524;BME280;75932;48.616;9.270;2024-02-28T07:44:09;98743.81;;;6.22;80.21
85524;BME280;75932;48.616;9.270;2024-02-28T07:46:35;98740.72;;;6.23;78.49
85524;BME280;75932;48.616;9.270;2024-02-28T07:49:00;98749.31;;;6.22;78.38
85524;BME280;75932;48.616;9.270;2024-02-28T07:51:26;98748.34;;;6.18;79.74
85524;BME280;75932;48.616;9.270;2024-02-28T07:53:51;98746.88;;;6.20;78.12
85524;BME280;75932;48.616;9.270;2024-02-28T07:56:20;98713.56;;;6.08;78.55
85524;BME280;75932;48.616;9.270;2024-02-28T07:58:46;98749.00;;;6.23;78.13
85524;BME280;75932;48.616;9.270;2024-02-28T08:01:11;98754.19;;;6.25;78.38
85524;BME280;75932;48.616;9.270;2024-02-28T08:03:37;98745.28;;;6.19;78.68
85524;BME280;75932;48.616;9.270;2024-02-28T08:06:06;98757.13;;;6.28;78.26
85524;BME280;75932;48.616;9.270;2024-02-28T08:08:31;98767.06;;;6.29;78.24
85524;BME280;75932;48.616;9.270;2024-02-28T08:10:56;98769.94;;;6.33;78.23
85524;BME280;75932;48.616;9.270;2024-02-28T08:13:22;98765.72;;;6.36;77.87
85524;BME280;75932;48.616;9.270;2024-02-28T08:15:47;98756.16;;;6.24;78.22
85524;BME280;75932;48.616;9.270;2024-02-28T08:18:12;98770.63;;;6.30;78.43
85524;BME280;75932;48.616;9.270;2024-02-28T08:20:38;98775.81;;;6.23;78.53
85524;BME280;75932;48.616;9.270;2024-02-28T08:23:04;98759.09;;;6.10;78.08
85524;BME280;75932;48.616;9.270;2024-02-28T08:25:30;98781.19;;;6.28;78.89
85524;BME280;75932;48.616;9.270;2024-02-28T08:27:55;98781.81;;;6.33;77.65
85524;BME280;75932;48.616;9.270;2024-02-28T08:30:21;98775.47;;;6.42;78.17
85524;BME280;75932;48.616;9.270;2024-02-28T08:32:46;98781.16;;;6.45;77.37
85524;BME280;75932;48.616;9.270;2024-02-28T08:35:12;98779.69;;;6.48;77.13
85524;BME280;75932;48.616;9.270;2024-02-28T08:37:40;98781.66;;;6.47;77.08
85524;BME280;75932;48.616;9.270;2024-02-28T08:40:06;98780.19;;;6.50;77.63
85524;BME280;75932;48.616;9.270;2024-02-28T08:42:32;98788.63;;;6.53;76.93
85524;BME280;75932;48.616;9.270;2024-02-28T08:44:57;98785.72;;;6.50;77.64
85524;BME280;75932;48.616;9.270;2024-02-28T08:47:25;98792.41;;;6.49;76.10
85524;BME280;75932;48.616;9.270;2024-02-28T08:49:54;98752.75;;;6.27;76.72
85524;BME280;75932;48.616;9.270;2024-02-28T08:52:20;98794.31;;;6.57;76.93
85524;BME280;75932;48.616;9.270;2024-02-28T08:54:46;98786.50;;;6.59;76.17
85524;BME280;75932;48.616;9.270;2024-02-28T08:57:11;98793.22;;;6.41;75.91
85524;BME280;75932;48.616;9.270;2024-02-28T08:59:37;98781.00;;;6.42;76.53
85524;BME280;75932;48.616;9.270;2024-02-28T09:02:02;98798.41;;;6.51;76.43
85524;BME280;75932;48.616;9.270;2024-02-28T09:04:28;98799.38;;;6.64;77.16
85524;BME280;75932;48.616;9.270;2024-02-28T09:06:54;98794.78;;;6.59;76.15
85524;BME280;75932;48.616;9.270;2024-02-28T09:09:19;98783.59;;;6.56;75.45
85524;BME280;75932;48.616;9.270;2024-02-28T09:11:44;98787.16;;;6.65;74.94
85524;BME280;75932;48.616;9.270;2024-02-28T09:14:10;98788.78;;;6.57;74.86
85524;BME280;75932;48.616;9.270;2024-02-28T09:16:35;98796.59;;;6.64;74.77
85524;BME280;75932;48.616;9.270;2024-02-28T09:19:00;98801.47;;;6.67;74.90
85524;BME280;75932;48.616;9.270;2024-02-28T09:21:26;98800.50;;;6.54;75.10
85524;BME280;75932;48.616;9.270;2024-02-28T09:23:51;98801.00;;;6.47;74.83
85524;BME280;75932;48.616;9.270;2024-02-28T09:26:16;98810.56;;;6.59;74.96
85524;BME280;75932;48.616;9.270;2024-02-28T09:28:42;98812.34;;;6.63;74.48
85524;BME280;75932;48.616;9.270;2024-02-28T09:31:07;98811.06;;;6.61;74.63
85524;BME280;75932;48.616;9.270;2024-02-28T09:33:32;98804.53;;;6.74;74.50
85524;BME280;75932;48.616;9.270;2024-02-28T09:35:58;98804.53;;;6.74;73.81
85524;BME280;75932;48.616;9.270;2024-02-28T09:38:23;98813.19;;;6.72;74.49
85524;BME280;75932;48.616;9.270;2024-02-28T09:40:48;98784.91;;;6.49;73.37
85524;BME280;75932;48.616;9.270;2024-02-28T09:43:36;98821.31;;;6.69;73.60
85524;BME280;75932;48.616;9.270;2024-02-28T09:46:05;98790.44;;;6.41;73.55
85524;BME280;75932;48.616;9.270;2024-02-28T09:48:31;98818.06;;;6.67;73.37
85524;BME280;75932;48.616;9.270;2024-02-28T09:50:57;98821.44;;;6.81;73.83
85524;BME280;75932;48.616;9.270;2024-02-28T09:53:23;98795.44;;;6.73;73.06
85524;BME280;75932;48.616;9.270;2024-02-28T09:55:50;98825.00;;;6.90;72.57
85524;BME280;75932;48.616;9.270;2024-02-28T09:58:15;98824.72;;;6.83;72.89
85524;BME280;75932;48.616;9.270;2024-02-28T10:00:42;98831.81;;;6.93;72.04
85524;BME280;75932;48.616;9.270;2024-02-28T10:03:20;98827.25;;;7.06;71.92
85524;BME280;75932;48.616;9.270;2024-02-28T10:05:47;98828.06;;;7.06;71.96
85524;BME280;75932;48.616;9.270;2024-02-28T10:08:13;98833.91;;;7.13;71.19
85524;BME280;75932;48.616;9.270;2024-02-28T10:10:47;98825.28;;;7.15;70.88
85524;BME280;75932;48.616;9.270;2024-02-28T10:13:15;98840.38;;;7.26;71.81
85524;BME280;75932;48.616;9.270;2024-02-28T10:15:41;98832.22;;;7.30;71.19
85524;BME280;75932;48.616;9.270;2024-02-28T10:18:06;98829.75;;;7.37;70.64
85524;BME280;75932;48.616;9.270;2024-02-28T10:20:31;98826.06;;;7.24;71.41
85524;BME280;75932;48.616;9.270;2024-02-28T10:22:57;98833.88;;;7.22;71.10
85524;BME280;75932;48.616;9.270;2024-02-28T10:25:24;98843.78;;;7.32;70.59
85524;BME280;75932;48.616;9.270;2024-02-28T10:27:51;98796.66;;;7.02;70.90
85524;BME280;75932;48.616;9.270;2024-02-28T10:30:18;98840.34;;;7.35;70.58
85524;BME280;75932;48.616;9.270;2024-02-28T10:32:50;98840.53;;;7.30;69.74
85524;BME280;75932;48.616;9.270;2024-02-28T10:35:17;98817.47;;;7.17;69.82
85524;BME280;75932;48.616;9.270;2024-02-28T10:37:47;98848.81;;;7.39;69.88
85524;BME280;75932;48.616;9.270;2024-02-28T10:40:16;98848.44;;;7.40;70.33
85524;BME280;75932;48.616;9.270;2024-02-28T10:42:42;98853.50;;;7.47;70.18
85524;BME280;75932;48.616;9.270;2024-02-28T10:45:12;98856.09;;;7.43;70.12
85524;BME280;75932;48.616;9.270;2024-02-28T10:47:38;98868.63;;;7.49;69.79
85524;BME280;75932;48.616;9.270;2024-02-28T10:50:04;98869.44;;;7.50;69.95
85524;BME280;75932;48.616;9.270;2024-02-28T10:52:33;98866.03;;;7.44;69.20
85524;BME280;75932;48.616;9.270;2024-02-28T10:54:59;98847.97;;;7.47;69.42
85524;BME280;75932;48.616;9.270;2024-02-28T10:57:27;98866.78;;;7.62;68.80
85524;BME280;75932;48.616;9.270;2024-02-28T10:59:55;98866.78;;;7.62;69.48
85524;BME280;75932;48.616;9.270;2024-02-28T11:02:21;98878.31;;;7.73;68.56
85524;BME280;75932;48.616;9.270;2024-02-28T11:04:50;98874.75;;;7.64;69.54
85524;BME280;75932;48.616;9.270;2024-02-28T11:07:19;98858.81;;;7.61;69.47
85524;BME280;75932;48.616;9.270;2024-02-28T11:09:46;98868.34;;;7.72;68.61
85524;BME280;75932;48.616;9.270;2024-02-28T11:12:27;98872.94;;;7.68;69.00
85524;BME280;75932;48.616;9.270;2024-02-28T11:15:02;98870.31;;;7.71;69.27
85524;BME280;75932;48.616;9.270;2024-02-28T11:17:29;98871.81;;;7.69;69.11
85524;BME280;75932;48.616;9.270;2024-02-28T11:19:55;98859.41;;;7.75;69.06
85524;BME280;75932;48.616;9.270;2024-02-28T11:22:21;98861.81;;;7.76;67.97
85524;BME280;75932;48.616;9.270;2024-02-28T11:24:47;98860.88;;;7.72;68.03
85524;BME280;75932;48.616;9.270;2024-02-28T11:27:13;98853.50;;;7.76;68.07
85524;BME280;75932;48.616;9.270;2024-02-28T11:29:39;98859.34;;;7.84;68.42
85524;BME280;75932;48.616;9.270;2024-02-28T11:32:05;98860.69;;;7.77;69.14
85524;BME280;75932;48.616;9.270;2024-02-28T11:34:30;98863.06;;;7.88;68.06
85524;BME280;75932;48.616;9.270;2024-02-28T11:36:56;98881.84;;;7.82;68.30
85524;BME280;75932;48.616;9.270;2024-02-28T11:39:23;98881.03;;;7.82;68.28
85524;BME280;75932;48.616;9.270;2024-02-28T11:41:52;98873.41;;;7.70;68.94
85524;BME280;75932;48.616;9.270;2024-02-28T11:44:19;98884.31;;;7.75;68.66
85524;BME280;75932;48.616;9.270;2024-02-28T11:46:45;98881.72;;;7.70;69.32
85524;BME280;75932;48.616;9.270;2024-02-28T11:49:12;98883.03;;;7.72;70.51
85524;BME280;75932;48.616;9.270;2024-02-28T11:51:40;98881.06;;;7.73;69.58
85524;BME280;75932;48.616;9.270;2024-02-28T11:54:05;98887.13;;;7.66;70.01
85524;BME280;75932;48.616;9.270;2024-02-28T11:56:32;98890.78;;;7.49;70.28
85524;BME280;75932;48.616;9.270;2024-02-28T11:58:58;98881.13;;;7.64;70.69
85524;BME280;75932;48.616;9.270;2024-02-28T12:01:37;98878.72;;;7.54;69.76
85524;BME280;75932;48.616;9.270;2024-02-28T12:04:06;98873.94;;;7.63;69.75
85524;BME280;75932;48.616;9.270;2024-02-28T12:06:32;98879.34;;;7.60;69.49
85524;BME280;75932;48.616;9.270;2024-02-28T12:08:59;98874.91;;;7.67;69.80
85524;BME280;75932;48.616;9.270;2024-02-28T12:11:25;98832.63;;;7.49;69.71
85524;BME280;75932;48.616;9.270;2024-02-28T12:13:54;98867.63;;;7.54;69.86
85524;BME280;75932;48.616;9.270;2024-02-28T12:16:24;98870.66;;;7.70;70.53
85524;BME280;75932;48.616;9.270;2024-02-28T12:18:50;98862.22;;;7.66;69.66
85524;BME280;75932;48.616;9.270;2024-02-28T12:21:16;98858.47;;;7.62;69.63
85524;BME280;75932;48.616;9.270;2024-02-28T12:23:41;98870.69;;;7.61;69.99
85524;BME280;75932;48.616;9.270;2024-02-28T12:26:09;98865.75;;;7.37;70.24
85524;BME280;75932;48.616;9.270;2024-02-28T12:28:34;98866.88;;;7.36;70.87
85524;BME280;75932;48.616;9.270;2024-02-28T12:31:02;98870.06;;;7.55;70.89
85524;BME280;75932;48.616;9.270;2024-02-28T12:33:27;98863.94;;;7.41;70.62
85524;BME280;75932;48.616;9.270;2024-02-28T12:35:52;98867.16;;;7.52;70.12
85524;BME280;75932;48.616;9.270;2024-02-28T12:38:18;98859.09;;;7.68;70.54
85524;BME280;75932;48.616;9.270;2024-02-28T12:40:44;98827.56;;;7.51;70.02
85524;BME280;75932;48.616;9.270;2024-02-28T12:43:10;98801.25;;;7.36;69.63
85524;BME280;75932;48.616;9.270;2024-02-28T12:45:35;98865.94;;;7.70;68.60
85524;BME280;75932;48.616;9.270;2024-02-28T12:48:00;98860.53;;;7.74;67.92
85524;BME280;75932;48.616;9.270;2024-02-28T12:50:27;98855.47;;;7.76;69.38
85524;BME280;75932;48.616;9.270;2024-02-28T12:52:52;98869.63;;;7.74;69.26
85524;BME280;75932;48.616;9.270;2024-02-28T12:55:18;98852.56;;;7.72;68.76
85524;BME280;75932;48.616;9.270;2024-02-28T12:57:44;98855.84;;;7.66;68.55
85524;BME280;75932;48.616;9.270;2024-02-28T13:00:10;98843.56;;;7.46;68.76
85524;BME280;75932;48.616;9.270;2024-02-28T13:02:36;98851.84;;;7.46;69.65
85524;BME280;75932;48.616;9.270;2024-02-28T13:05:01;98853.84;;;7.36;69.57